createdAt,value
2022-08-09T00:00:06.142Z,101413.15
2022-08-09T00:04:00.635Z,101418.27
2022-08-09T00:06:15.554Z,101415.73
2022-08-09T00:08:53.374Z,101418.31
2022-08-09T00:11:58.690Z,101416.46
2022-08-09T00:14:31.149Z,101418.96
2022-08-09T00:18:04.270Z,101419.20
2022-08-09T00:20:05.142Z,101419.35
2022-08-09T00:22:37.063Z,101416.33
2022-08-09T00:25:14.301Z,101420.20
2022-08-09T00:27:56.469Z,101416.11
2022-08-09T00:30:30.539Z,101416.98
2022-08-09T00:33:05.595Z,101417.41
2022-08-09T00:35:42.859Z,101411.41
2022-08-09T00:38:16.150Z,101410.34
2022-08-09T00:40:54.923Z,101416.63
2022-08-09T00:44:16.910Z,101414.23
2022-08-09T00:46:45.293Z,101415.69
2022-08-09T00:49:15.372Z,101420.55
2022-08-09T00:51:54.446Z,101426.94
2022-08-09T00:54:34.969Z,101429.27
2022-08-09T00:57:11.059Z,101430.96
2022-08-09T00:59:47.112Z,101429.59
2022-08-09T01:02:29.270Z,101429.70
2022-08-09T01:05:14.202Z,101427.13
2022-08-09T01:08:02.691Z,101432.34
2022-08-09T01:10:43.466Z,101427.29
2022-08-09T01:13:53.208Z,101434.31
2022-08-09T01:16:28.739Z,101432.11
2022-08-09T01:19:16.903Z,101434.55
2022-08-09T01:22:16.296Z,101427.25
2022-08-09T01:25:00.904Z,101432.05
2022-08-09T01:27:37.243Z,101433.36
2022-08-09T01:30:28.657Z,101436.52
2022-08-09T01:33:10.067Z,101433.80
2022-08-09T01:35:52.216Z,101435.46
2022-08-09T01:38:28.709Z,101433.36
2022-08-09T01:41:06.155Z,101435.89
2022-08-09T01:43:50.640Z,101434.52
2022-08-09T01:46:31.658Z,101434.20
2022-08-09T01:49:10.494Z,101433.67
2022-08-09T01:51:54.464Z,101430.27
2022-08-09T01:54:33.904Z,101436.09
2022-08-09T01:57:16.548Z,101438.56
2022-08-09T01:59:53.289Z,101436.45
2022-08-09T02:02:36.292Z,101430.26
2022-08-09T02:05:16.122Z,101431.36
2022-08-09T02:08:40.414Z,101426.01
2022-08-09T02:10:50.958Z,101430.98
2022-08-09T02:13:40.177Z,101431.88
2022-08-09T02:16:15.977Z,101426.39
2022-08-09T02:18:48.479Z,101430.15
2022-08-09T02:21:24.150Z,101426.38
2022-08-09T02:24:04.714Z,101431.74
2022-08-09T02:26:39.130Z,101425.61
2022-08-09T02:29:21.825Z,101427.88
2022-08-09T02:32:01.356Z,101425.45
2022-08-09T02:34:41.704Z,101428.30
2022-08-09T02:37:31.784Z,101425.23
2022-08-09T02:40:11.045Z,101428.30
2022-08-09T02:42:51.082Z,101431.08
2022-08-09T02:45:30.054Z,101435.96
2022-08-09T02:48:12.313Z,101438.05
2022-08-09T02:51:03.359Z,101438.41
2022-08-09T02:54:00.507Z,101441.34
2022-08-09T02:56:36.514Z,101438.17
2022-08-09T02:59:12.842Z,101439.08
2022-08-09T03:02:06.234Z,101443.77
2022-08-09T03:04:40.874Z,101444.95
2022-08-09T03:07:14.667Z,101445.34
2022-08-09T03:09:54.390Z,101444.38
2022-08-09T03:12:30.493Z,101445.73
2022-08-09T03:15:04.816Z,101450.54
2022-08-09T03:17:38.415Z,101446.90
2022-08-09T03:20:11.160Z,101453.16
2022-08-09T03:22:52.622Z,101447.22
2022-08-09T03:25:58.537Z,101449.32
2022-08-09T03:28:25.776Z,101450.23
2022-08-09T03:30:59.365Z,101446.55
2022-08-09T03:33:54.395Z,101448.95
2022-08-09T03:36:29.415Z,101449.59
2022-08-09T03:39:02.854Z,101450.43
2022-08-09T03:41:45.754Z,101449.58
2022-08-09T03:44:21.699Z,101457.28
2022-08-09T03:46:59.651Z,101457.95
2022-08-09T03:49:35.801Z,101455.20
2022-08-09T03:52:09.172Z,101451.36
2022-08-09T03:54:45.138Z,101453.30
2022-08-09T03:57:20.453Z,101453.00
2022-08-09T04:00:00.623Z,101449.37
2022-08-09T04:02:36.037Z,101455.50
2022-08-09T04:05:26.979Z,101453.16
2022-08-09T04:07:59.839Z,101458.38
2022-08-09T04:10:33.232Z,101460.91
2022-08-09T04:13:13.575Z,101457.35
2022-08-09T04:16:18.667Z,101458.73
2022-08-09T04:18:45.888Z,101453.02
2022-08-09T04:21:19.056Z,101459.88
2022-08-09T04:23:53.634Z,101460.48
2022-08-09T04:26:37.717Z,101462.58
2022-08-09T04:29:15.667Z,101465.39
2022-08-09T04:31:48.112Z,101467.58
2022-08-09T04:34:30.772Z,101468.14
2022-08-09T04:37:04.352Z,101471.71
2022-08-09T04:39:40.885Z,101477.20
2022-08-09T04:42:15.920Z,101475.92
2022-08-09T04:44:50.413Z,101479.42
2022-08-09T04:47:25.536Z,101479.93
2022-08-09T04:50:05.430Z,101478.78
2022-08-09T04:52:42.191Z,101479.06
2022-08-09T04:55:15.520Z,101481.04
2022-08-09T04:57:59.464Z,101482.05
2022-08-09T05:00:41.009Z,101484.79
2022-08-09T05:03:41.108Z,101487.58
2022-08-09T05:06:08.150Z,101487.23
2022-08-09T05:08:43.891Z,101483.35
2022-08-09T05:11:19.995Z,101483.15
2022-08-09T05:13:55.039Z,101485.79
2022-08-09T05:16:31.579Z,101487.91
2022-08-09T05:19:04.239Z,101487.56
2022-08-09T05:21:47.183Z,101488.70
2022-08-09T05:24:27.534Z,101493.25
2022-08-09T05:26:59.598Z,101497.11
2022-08-09T05:29:35.519Z,101498.40
2022-08-09T05:32:08.485Z,101498.13
2022-08-09T05:34:42.900Z,101495.13
2022-08-09T05:37:18.292Z,101498.42
2022-08-09T05:39:50.586Z,101489.56
2022-08-09T05:42:28.045Z,101499.08
2022-08-09T05:45:06.081Z,101500.28
2022-08-09T05:47:45.511Z,101495.55
2022-08-09T05:50:50.476Z,101495.52
2022-08-09T05:53:21.630Z,101501.64
2022-08-09T05:56:04.114Z,101502.31
2022-08-09T05:58:37.025Z,101500.95
2022-08-09T06:01:09.679Z,101501.76
2022-08-09T06:03:58.175Z,101504.50
2022-08-09T06:06:31.096Z,101501.54
2022-08-09T06:09:09.893Z,101507.23
2022-08-09T06:11:57.774Z,101508.41
2022-08-09T06:14:30.108Z,101511.29
2022-08-09T06:17:09.064Z,101508.51
2022-08-09T06:19:42.087Z,101506.02
2022-08-09T06:22:15.740Z,101509.94
2022-08-09T06:24:47.715Z,101512.34
2022-08-09T06:27:21.003Z,101514.97
2022-08-09T06:30:04.573Z,101515.79
2022-08-09T06:33:00.608Z,101519.10
2022-08-09T06:35:35.798Z,101520.56
2022-08-09T06:38:36.336Z,101518.28
2022-08-09T06:41:18.709Z,101521.95
2022-08-09T06:43:53.100Z,101525.43
2022-08-09T06:46:40.347Z,101528.63
2022-08-09T06:49:16.214Z,101528.14
2022-08-09T06:52:01.245Z,101530.75
2022-08-09T06:54:33.120Z,101530.86
2022-08-09T06:57:04.915Z,101536.19
2022-08-09T07:00:57.405Z,101536.99
2022-08-09T07:02:32.415Z,101539.42
2022-08-09T07:05:06.251Z,101541.89
2022-08-09T07:08:00.670Z,101544.67
2022-08-09T07:10:32.501Z,101547.94
2022-08-09T07:13:27.586Z,101552.25
2022-08-09T07:16:42.655Z,101552.27
2022-08-09T07:18:50.174Z,101555.55
2022-08-09T07:21:22.036Z,101554.00
2022-08-09T07:23:58.158Z,101555.18
2022-08-09T07:26:30.326Z,101557.70
2022-08-09T07:29:12.214Z,101558.08
2022-08-09T07:31:48.097Z,101561.23
2022-08-09T07:34:20.535Z,101564.86
2022-08-09T07:36:53.515Z,101569.23
2022-08-09T07:39:41.084Z,101571.77
2022-08-09T07:42:14.316Z,101572.60
2022-08-09T07:44:51.574Z,101574.23
2022-08-09T07:47:25.185Z,101576.83
2022-08-09T07:50:05.314Z,101576.89
2022-08-09T07:52:41.402Z,101579.70
2022-08-09T07:55:15.401Z,101573.89
2022-08-09T07:57:49.021Z,101578.98
2022-08-09T08:00:35.983Z,101569.33
2022-08-09T08:03:09.833Z,101574.30
2022-08-09T08:05:57.559Z,101576.34
2022-08-09T08:09:00.596Z,101570.96
2022-08-09T08:12:10.577Z,101573.69
2022-08-09T08:14:14.529Z,101574.23
2022-08-09T08:17:00.553Z,101574.44
2022-08-09T08:19:32.893Z,101575.82
2022-08-09T08:22:05.609Z,101579.62
2022-08-09T08:24:40.038Z,101581.95
2022-08-09T08:27:17.078Z,101581.36
2022-08-09T08:29:52.280Z,101579.52
2022-08-09T08:32:29.458Z,101578.48
2022-08-09T08:35:02.758Z,101579.92
2022-08-09T08:37:41.315Z,101580.02
2022-08-09T08:40:26.918Z,101579.64
2022-08-09T08:43:02.014Z,101586.54
2022-08-09T08:45:43.239Z,101586.29
2022-08-09T08:48:29.154Z,101588.95
2022-08-09T08:51:04.185Z,101581.41
2022-08-09T08:53:37.414Z,101583.52
2022-08-09T08:56:13.650Z,101579.34
2022-08-09T08:58:57.170Z,101581.35
2022-08-09T09:01:44.931Z,101581.66
2022-08-09T09:04:26.666Z,101584.05
2022-08-09T09:07:02.448Z,101577.95
2022-08-09T09:10:01.806Z,101582.28
2022-08-09T09:12:34.157Z,101583.31
2022-08-09T09:15:09.279Z,101581.14
2022-08-09T09:17:48.960Z,101586.20
2022-08-09T09:20:25.844Z,101584.23
2022-08-09T09:23:01.855Z,101585.69
2022-08-09T09:26:04.056Z,101584.16
2022-08-09T09:29:02.924Z,101581.95
2022-08-09T09:32:04.065Z,101585.90
2022-08-09T09:34:19.514Z,101586.17
2022-08-09T09:36:53.917Z,101584.98
2022-08-09T09:39:55.177Z,101588.45
2022-08-09T09:42:36.341Z,101588.34
2022-08-09T09:45:10.658Z,101588.57
2022-08-09T09:47:56.667Z,101585.43
2022-08-09T09:50:49.604Z,101584.25
2022-08-09T09:53:43.827Z,101586.08
2022-08-09T09:56:19.675Z,101579.05
2022-08-09T09:59:03.566Z,101576.74
2022-08-09T10:01:38.225Z,101573.25
2022-08-09T10:04:22.574Z,101570.05
2022-08-09T10:07:03.657Z,101568.13
2022-08-09T10:09:54.825Z,101563.49
2022-08-09T10:12:29.570Z,101565.75
2022-08-09T10:15:17.531Z,101563.34
2022-08-09T10:18:14.033Z,101564.65
2022-08-09T10:20:48.754Z,101560.13
2022-08-09T10:23:24.288Z,101559.62
2022-08-09T10:26:07.497Z,101559.70
2022-08-09T10:28:48.736Z,101556.23
2022-08-09T10:34:33.474Z,101556.20
2022-08-09T10:37:09.678Z,101554.77
2022-08-09T10:39:49.439Z,101550.89
2022-08-09T10:42:26.904Z,101551.89
2022-08-09T10:45:10.719Z,101553.16
2022-08-09T10:48:19.248Z,101545.77
2022-08-09T10:51:12.158Z,101543.54
2022-08-09T10:54:04.883Z,101541.61
2022-08-09T10:56:39.099Z,101541.02
2022-08-09T10:59:31.762Z,101536.96
2022-08-09T11:03:15.572Z,101537.54
2022-08-09T11:05:31.110Z,101538.69
2022-08-09T11:08:34.034Z,101533.87
2022-08-09T11:11:15.665Z,101534.76
2022-08-09T11:13:53.693Z,101531.38
2022-08-09T11:16:37.345Z,101534.61
2022-08-09T11:19:11.397Z,101539.42
2022-08-09T11:22:05.300Z,101535.19
2022-08-09T11:25:10.289Z,101536.98
2022-08-09T11:28:04.069Z,101538.60
2022-08-09T11:30:37.811Z,101536.05
2022-08-09T11:33:26.405Z,101535.52
2022-08-09T11:36:00.302Z,101537.05
2022-08-09T11:38:34.965Z,101532.79
2022-08-09T11:41:37.972Z,101536.20
2022-08-09T11:44:13.553Z,101532.68
2022-08-09T11:46:57.000Z,101536.01
2022-08-09T11:50:55.698Z,101534.93
2022-08-09T11:53:58.093Z,101532.19
2022-08-09T11:56:41.989Z,101536.57
2022-08-09T11:59:33.550Z,101532.45
2022-08-09T12:02:17.205Z,101534.87
2022-08-09T12:04:58.196Z,101532.63
2022-08-09T12:07:41.337Z,101530.52
2022-08-09T12:10:39.590Z,101527.45
2022-08-09T12:14:09.720Z,101525.81
2022-08-09T12:16:03.595Z,101523.69
2022-08-09T12:18:37.509Z,101521.23
2022-08-09T12:21:28.655Z,101523.80
2022-08-09T12:24:09.625Z,101519.54
2022-08-09T12:26:44.663Z,101512.02
2022-08-09T12:29:33.100Z,101506.33
2022-08-09T12:32:11.585Z,101509.14
2022-08-09T12:34:44.813Z,101504.17
2022-08-09T12:37:23.832Z,101498.36
2022-08-09T12:40:06.378Z,101497.49
2022-08-09T12:42:44.239Z,101496.86
2022-08-09T12:45:34.266Z,101497.85
2022-08-09T12:48:11.051Z,101497.90
2022-08-09T12:51:03.792Z,101493.71
2022-08-09T12:53:40.952Z,101495.59
2022-08-09T12:56:44.258Z,101494.99
2022-08-09T12:59:14.347Z,101491.16
2022-08-09T13:01:50.317Z,101488.73
2022-08-09T13:04:37.580Z,101495.77
2022-08-09T13:07:16.791Z,101496.41
2022-08-09T13:10:05.102Z,101496.45
2022-08-09T13:13:09.743Z,101492.17
2022-08-09T13:15:58.616Z,101491.18
2022-08-09T13:18:46.888Z,101490.77
2022-08-09T13:22:36.718Z,101488.34
2022-08-09T13:24:52.672Z,101489.32
2022-08-09T13:27:24.282Z,101483.38
2022-08-09T13:30:51.291Z,101488.09
2022-08-09T13:32:56.779Z,101486.89
2022-08-09T13:35:34.234Z,101485.00
2022-08-09T13:38:17.807Z,101480.80
2022-08-09T13:41:55.682Z,101481.17
2022-08-09T13:43:53.855Z,101474.82
2022-08-09T13:47:16.103Z,101473.23
2022-08-09T13:49:18.330Z,101479.45
2022-08-09T13:52:00.535Z,101472.92
2022-08-09T13:54:33.108Z,101475.58
2022-08-09T13:57:06.415Z,101478.80
2022-08-09T13:59:42.056Z,101478.53
2022-08-09T14:02:16.780Z,101464.72
2022-08-09T14:04:59.665Z,101467.24
2022-08-09T14:07:42.183Z,101469.28
2022-08-09T14:10:17.287Z,101467.11
2022-08-09T14:13:00.999Z,101468.10
2022-08-09T14:16:08.923Z,101465.19
2022-08-09T14:18:32.021Z,101469.27
2022-08-09T14:21:04.077Z,101466.24
2022-08-09T14:23:40.299Z,101473.69
2022-08-09T14:26:18.796Z,101469.30
2022-08-09T14:28:50.664Z,101470.70
2022-08-09T14:31:23.700Z,101468.92
2022-08-09T14:34:17.661Z,101466.08
2022-08-09T14:37:06.075Z,101470.38
2022-08-09T14:39:46.904Z,101465.57
2022-08-09T14:42:32.026Z,101462.27
2022-08-09T14:47:00.748Z,101465.31
2022-08-09T14:48:03.523Z,101465.16
2022-08-09T14:50:37.354Z,101462.86
2022-08-09T14:53:13.729Z,101461.42
2022-08-09T14:55:49.934Z,101456.30
2022-08-09T14:58:22.415Z,101452.77
2022-08-09T15:00:53.431Z,101455.13
2022-08-09T15:03:29.997Z,101455.85
2022-08-09T15:06:03.943Z,101444.96
2022-08-09T15:08:36.203Z,101450.41
2022-08-09T15:11:09.389Z,101452.34
2022-08-09T15:13:56.354Z,101455.47
2022-08-09T15:16:35.872Z,101457.05
2022-08-09T15:19:18.169Z,101459.16
2022-08-09T15:21:58.617Z,101456.17
2022-08-09T15:24:33.750Z,101455.41
2022-08-09T15:27:05.591Z,101453.30
2022-08-09T15:30:58.435Z,101450.77
2022-08-09T15:32:30.514Z,101454.04
2022-08-09T15:35:18.705Z,101450.79
2022-08-09T15:37:57.157Z,101449.27
2022-08-09T15:40:44.754Z,101451.48
2022-08-09T15:43:18.094Z,101449.19
2022-08-09T15:46:07.528Z,101455.17
2022-08-09T15:48:41.580Z,101455.20
2022-08-09T15:52:04.014Z,101454.11
2022-08-09T15:54:33.450Z,101451.77
2022-08-09T15:57:14.440Z,101449.27
2022-08-09T15:59:52.027Z,101451.38
2022-08-09T16:02:27.058Z,101452.55
2022-08-09T16:04:59.231Z,101457.60
2022-08-09T16:07:38.930Z,101457.29
2022-08-09T16:10:38.458Z,101463.70
2022-08-09T16:13:05.122Z,101463.67
2022-08-09T16:16:11.023Z,101462.77
2022-08-09T16:18:49.939Z,101464.09
2022-08-09T16:21:31.606Z,101464.67
2022-08-09T16:24:19.955Z,101458.64
2022-08-09T16:27:02.164Z,101458.41
2022-08-09T16:29:49.996Z,101457.67
2022-08-09T16:32:49.640Z,101457.45
2022-08-09T16:35:55.744Z,101458.73
2022-08-09T16:38:18.735Z,101457.94
2022-08-09T16:40:50.744Z,101455.23
2022-08-09T16:43:22.736Z,101462.34
2022-08-09T16:45:55.593Z,101461.27
2022-08-09T16:48:39.161Z,101463.31
2022-08-09T16:51:20.034Z,101461.04
2022-08-09T16:54:25.209Z,101464.88
2022-08-09T16:56:49.339Z,101465.44
2022-08-09T16:59:22.233Z,101461.45
2022-08-09T17:01:54.119Z,101467.10
2022-08-09T17:04:30.021Z,101464.32
2022-08-09T17:08:40.760Z,101465.38
2022-08-09T17:10:01.852Z,101468.29
2022-08-09T17:12:36.720Z,101469.01
2022-08-09T17:15:31.463Z,101473.73
2022-08-09T17:18:02.542Z,101472.45
2022-08-09T17:20:39.047Z,101477.15
2022-08-09T17:23:16.097Z,101478.34
2022-08-09T17:25:52.797Z,101480.16
2022-08-09T17:28:25.028Z,101482.16
2022-08-09T17:30:58.838Z,101483.79
2022-08-09T17:33:32.267Z,101480.98
2022-08-09T17:36:14.695Z,101479.56
2022-08-09T17:38:52.747Z,101484.60
2022-08-09T17:41:38.888Z,101485.84
2022-08-09T17:44:42.291Z,101485.98
2022-08-09T17:47:04.058Z,101485.05
2022-08-09T17:49:36.454Z,101486.09
2022-08-09T17:52:22.724Z,101485.45
2022-08-09T17:54:55.632Z,101486.81
2022-08-09T17:58:04.007Z,101491.55
2022-08-09T18:00:21.263Z,101490.27
2022-08-09T18:03:13.089Z,101492.84
2022-08-09T18:05:45.017Z,101492.39
2022-08-09T18:08:27.387Z,101493.14
2022-08-09T18:11:02.210Z,101497.35
2022-08-09T18:13:39.444Z,101501.95
2022-08-09T18:16:16.406Z,101505.59
2022-08-09T18:18:49.111Z,101506.80
2022-08-09T18:21:23.721Z,101507.08
2022-08-09T18:24:10.661Z,101509.91
2022-08-09T18:26:46.859Z,101512.60
2022-08-09T18:30:38.509Z,101513.50
2022-08-09T18:32:12.782Z,101517.55
2022-08-09T18:34:44.873Z,101518.30
2022-08-09T18:37:49.153Z,101523.54
2022-08-09T18:40:10.277Z,101523.02
2022-08-09T18:42:46.732Z,101526.64
2022-08-09T18:45:21.469Z,101530.01
2022-08-09T18:47:53.798Z,101526.96
2022-08-09T18:50:26.458Z,101530.05
2022-08-09T18:53:06.402Z,101529.84
2022-08-09T18:55:57.004Z,101537.17
2022-08-09T18:58:38.970Z,101537.20
2022-08-09T19:01:11.050Z,101537.39
2022-08-09T19:03:54.649Z,101539.16
2022-08-09T19:06:38.577Z,101543.35
2022-08-09T19:09:13.462Z,101545.17
2022-08-09T19:11:52.489Z,101549.45
2022-08-09T19:14:29.167Z,101546.27
2022-08-09T19:17:01.387Z,101547.93
2022-08-09T19:19:37.035Z,101555.11
2022-08-09T19:22:15.234Z,101555.34
2022-08-09T19:25:11.918Z,101558.70
2022-08-09T19:27:40.746Z,101561.69
2022-08-09T19:30:22.608Z,101562.95
2022-08-09T19:33:00.728Z,101559.38
2022-08-09T19:35:57.199Z,101560.92
2022-08-09T19:38:25.034Z,101555.16
2022-08-09T19:41:00.476Z,101558.85
2022-08-09T19:44:00.735Z,101565.53
2022-08-09T19:46:34.960Z,101560.05
2022-08-09T19:50:08.546Z,101562.41
2022-08-09T19:52:00.779Z,101559.22
2022-08-09T19:54:31.902Z,101559.85
2022-08-09T19:57:04.384Z,101557.76
2022-08-09T20:00:02.420Z,101564.54
2022-08-09T20:04:26.332Z,101564.81
2022-08-09T20:05:41.360Z,101566.30
2022-08-09T20:08:24.981Z,101567.95
2022-08-09T20:11:05.811Z,101570.73
2022-08-09T20:13:36.973Z,101574.69
2022-08-09T20:16:37.862Z,101573.95
2022-08-09T20:19:42.209Z,101573.83
2022-08-09T20:21:56.932Z,101576.13
2022-08-09T20:24:34.122Z,101574.15
2022-08-09T20:27:08.192Z,101573.59
2022-08-09T20:29:41.444Z,101571.08
2022-08-09T20:32:29.085Z,101573.84
2022-08-09T20:35:05.801Z,101569.81
2022-08-09T20:38:23.963Z,101573.80
2022-08-09T20:40:31.638Z,101567.03
2022-08-09T20:43:18.446Z,101564.37
2022-08-09T20:46:00.839Z,101561.05
2022-08-09T20:48:49.061Z,101564.17
2022-08-09T20:51:26.821Z,101564.58
2022-08-09T20:54:00.137Z,101564.06
2022-08-09T20:56:35.546Z,101564.52
2022-08-09T20:59:07.261Z,101561.27
2022-08-09T21:01:49.818Z,101566.20
2022-08-09T21:05:52.591Z,101572.13
2022-08-09T21:07:16.530Z,101571.91
2022-08-09T21:09:56.584Z,101575.64
2022-08-09T21:12:32.955Z,101577.13
2022-08-09T21:15:12.709Z,101578.65
2022-08-09T21:18:22.018Z,101584.56
2022-08-09T21:20:36.759Z,101582.80
2022-08-09T21:23:13.113Z,101586.08
2022-08-09T21:25:59.744Z,101589.00
2022-08-09T21:28:36.105Z,101591.58
2022-08-09T21:31:17.033Z,101589.88
2022-08-09T21:33:53.133Z,101594.35
2022-08-09T21:36:30.597Z,101593.98
2022-08-09T21:39:04.221Z,101589.33
2022-08-09T21:42:03.720Z,101590.30
2022-08-09T21:44:34.138Z,101597.45
2022-08-09T21:47:10.380Z,101598.04
2022-08-09T21:49:50.875Z,101593.82
2022-08-09T21:52:23.603Z,101597.88
2022-08-09T21:54:59.706Z,101594.55
2022-08-09T21:57:58.786Z,101599.48
2022-08-09T22:00:34.396Z,101604.12
2022-08-09T22:03:08.343Z,101605.30
2022-08-09T22:05:52.248Z,101609.63
2022-08-09T22:08:25.937Z,101609.23
2022-08-09T22:11:48.869Z,101609.20
2022-08-09T22:13:50.118Z,101607.70
2022-08-09T22:16:23.515Z,101604.83
2022-08-09T22:18:55.853Z,101604.50
2022-08-09T22:21:49.591Z,101603.06
2022-08-09T22:24:24.858Z,101600.30
2022-08-09T22:26:57.344Z,101602.16
2022-08-09T22:29:38.344Z,101604.77
2022-08-09T22:32:29.881Z,101609.13
2022-08-09T22:35:06.769Z,101602.35
2022-08-09T22:38:06.550Z,101607.58
2022-08-09T22:40:39.410Z,101606.96
2022-08-09T22:44:00.682Z,101603.37
2022-08-09T22:48:13.806Z,101606.65
2022-08-09T22:49:09.697Z,101610.70
2022-08-09T22:51:49.521Z,101611.81
2022-08-09T22:54:21.631Z,101609.36
2022-08-09T22:56:56.636Z,101612.25
2022-08-09T22:59:55.859Z,101610.12
2022-08-09T23:02:21.138Z,101613.09
2022-08-09T23:04:57.064Z,101614.23
2022-08-09T23:08:22.634Z,101613.20
2022-08-09T23:10:43.694Z,101617.13
2022-08-09T23:13:16.365Z,101614.16
2022-08-09T23:16:03.340Z,101613.22
2022-08-09T23:18:35.576Z,101609.88
2022-08-09T23:21:07.776Z,101608.56
2022-08-09T23:23:40.493Z,101605.45
2022-08-09T23:26:10.614Z,101604.36
2022-08-09T23:28:42.422Z,101604.55
2022-08-09T23:31:14.083Z,101604.06
2022-08-09T23:33:45.929Z,101606.59
2022-08-09T23:36:17.554Z,101606.35
2022-08-09T23:38:49.587Z,101606.35
2022-08-09T23:41:28.719Z,101606.34
2022-08-09T23:44:03.400Z,101609.94
2022-08-09T23:46:36.052Z,101615.81
2022-08-09T23:49:07.694Z,101617.52
2022-08-09T23:51:39.545Z,101616.02
2022-08-09T23:54:11.373Z,101615.20
2022-08-09T23:56:54.778Z,101617.58
2022-08-09T23:59:50.280Z,101617.83
